Weather observations for the past three days for
Bay Bridge Field
Metric (Imperial)
Date Time (edt) Wind (kph) Vis. (km) Weather Sky Cond. Temperature (ºC) Relative Humidity Wind Chill (°C) Heat Index (°C) Pressure Precipitation (cm)
Air Dwpt 6 hour altimeter (cm) sea level (mb) 1 hr 3 hr 6 hr
Max. Min.
02 03:15 E 6 16.09 Fair CLR 24.2 21.3 84% 24 76.28 0.0
02 02:55 SE 7 16.09 Fair CLR 24.4 21.2 82% 25 76.25 0.0
02 02:35 SE 7 16.09 Fair CLR 24.4 21 81% 25 76.25 0.0
02 02:15 E 11 16.09 Fair CLR 24.5 20.6 79% 25 76.25 0.0
02 01:55 E 13 16.09 Partly Cloudy SCT038 24.7 20.6 30.8 24.6 78% 25 76.25 0.0
02 01:35 E 15 16.09 Mostly Cloudy BKN038 BKN070 25.2 20.6 76% 26 76.28 0.0
02 01:15 NE 13 16.09 Partly Cloudy SCT070 25.6 20.7 74% 27 76.25 0.0
02 00:55 SE 7 16.09 Fair CLR 26.4 20.7 71% 28 76.2 0.0
02 00:35 SE 7 16.09 Thunderstorm in Vicinity SCT065 26.5 20.6 70% 28 76.23 0.0
02 00:15 E 7 16.09 Mostly Cloudy BKN070 BKN075 26.8 20.8 70% 29 76.23 0.0
01 23:55 E 11 16.09 Overcast OVC070 27.9 22.1 71% 31 76.23 0.0
01 23:35 Calm 16.09 Overcast OVC070 28.2 23.7 77% 32 76.17 0.0
01 23:15 E 9 16.09 Overcast OVC070 28.8 23.5 73% 33 76.17 0.0
01 22:55 SW 7 16.09 Mostly Cloudy BKN070 30.2 23.4 67% 35 76.15 0.0
01 22:35 W 7 16.09 Fair CLR 29.6 24.3 73% 35 76.12 0.0
01 22:15 SW 13 16.09 Fair CLR 29.9 23.9 70% 35 76.12 0.0
01 21:55 SW 11 16.09 Fair CLR 30 24.2 71% 35 76.12 0.0
01 21:35 SW 15 16.09 Fair CLR 29.9 24.2 72% 35 76.07 0.0
01 21:15 SW 11 16.09 Fair CLR 29.8 24.4 73% 35 76.05 0.0
01 20:55 S 11 16.09 Partly Cloudy SCT070 30.1 24.6 72% 36 76.07 0.0
01 20:35 SW 13 11.27 Fair CLR 30.6 24 68% 36 76.05 0.0
01 20:15 SW 9 16.09 Fair CLR 30.6 24 68% 36 75.97 0.0
01 19:55 SW 11 16.09 Fair CLR 30.7 24.1 35.3 30.7 68% 36 76 0.0
01 19:35 S 11 16.09 Fair CLR 30.8 24.2 68% 36 76.02 0.0
01 19:15 S 11 16.09 Fair CLR 31.1 24.3 67% 37 76.02 0.0
01 18:55 S 9 16.09 Fair CLR 31.5 24.5 66% 38 76.02 0.0
01 18:35 S 9 16.09 Fair CLR 32.2 24.3 63% 39 76.02 0.0
01 18:15 S 9 16.09 Fair CLR 32.8 24.1 60% 39 76.02 0.0
01 17:55 S 13 16.09 Partly Cloudy SCT080 33 24.2 60% 39 76.05 0.0
01 17:35 S 15 16.09 Partly Cloudy SCT080 SCT090 33.6 24.3 58% 40 76.05 0.0
01 17:15 S 15 16.09 Partly Cloudy SCT080 34.4 24.3 56% 41 76.05 0.0
01 16:55 SE 13 16.09 Fair CLR 34.7 24.9 57% 43 76.07 0.0
01 16:35 S 9 16.09 Fair CLR 35.1 24.1 53% 42 76.07 0.0
01 16:15 S 13 16.09 Fair CLR 34.6 23.6 53% 41 76.07 0.0
01 15:55 W 6 16.09 Fair CLR 34.2 23 52% 40 76.1 0.0
01 15:35 NW 7 16.09 Fair CLR 34 22.6 51% 39 76.12 0.0
01 15:15 Calm 16.09 Fair CLR 34.5 22.6 50% 39 76.12 0.0
01 14:55 W 6 16.09 Fair CLR 33.8 22.2 51% 38 76.15 0.0
01 14:35 SW 6 16.09 Fair CLR 34.2 22.6 51% 39 76.15 0.0
01 14:15 S 7 11.27 Fair CLR 34.1 24.3 57% 41 76.15 0.0
01 13:55 S 9 16.09 Fair CLR 33.5 24.4 34 27.1 59% 40 76.15 0.0
01 13:35 SE 9 16.09 Fair CLR 33 23.3 57% 38 76.15 0.0
01 13:15 Calm 16.09 Partly Cloudy SCT050 SCT055 32.7 22.7 56% 37 76.17 0.0
01 12:55 Calm 16.09 Partly Cloudy SCT055 32.9 22.7 55% 38 76.17 0.0
01 12:35 W 7 16.09 Fair CLR 33 22.3 53% 37 76.2 0.0
01 12:15 W 7 16.09 Fair CLR 33.1 22.7 54% 38 76.2 0.0
01 11:55 W 9 16.09 Fair CLR 32.7 22.8 56% 37 76.23 0.0
01 11:35 W 9 16.09 Fair CLR 32 23.2 60% 37 76.23 0.0
01 11:15 SW 11 16.09 Fair CLR 31.7 23.4 61% 37 76.25 0.0
01 10:55 SW 11 8.05 Fair with Haze CLR 30.4 23.4 66% 35 76.25 0.0
01 10:35 SW 11 16.09 Fair CLR 30.4 23.2 65% 35 76.25 0.0
01 10:15 SW 9 16.09 Fair CLR 30.5 23.3 65% 35 76.25 0.0
01 09:55 SW 13 16.09 Fair CLR 29.3 22.8 68% 33 76.25 0.0
01 09:35 SW 9 16.09 Fair CLR 29.4 23.2 69% 33 76.25 0.0
01 09:15 SW 9 16.09 Fair CLR 28.3 23.6 76% 32 76.28 0.0
01 08:55 W 7 16.09 Fair CLR 27.9 23.3 76% 31 76.28 0.0
01 08:35 SW 9 11.27 Fair CLR 27.6 23.4 78% 31 76.28 0.0
01 08:15 SW 9 16.09 Fair CLR 27.4 23.5 79% 31 76.28 0.0
01 07:55 SW 7 16.09 Partly Cloudy SCT110 27.2 23.7 27.2 24.6 81% 30 76.28 0.0
01 07:35 S 6 16.09 Mostly Cloudy BKN110 26.7 23.6 83% 29 76.28 0.0
01 07:15 Calm 16.09 Fair CLR 25.7 23.5 88% 27 76.28 0.0
01 06:55 Calm 16.09 Fair CLR 25.2 23.3 89% 26 76.28 0.0
01 06:35 Calm 16.09 Fair CLR 25 23.3 90% 26 76.28 0.0
01 06:15 S 6 16.09 Fair CLR 25.3 23.2 88% 26 76.23 0.0
01 05:55 S 7 16.09 Fair CLR 25.5 23.3 88% 27 76.23 0.0
01 05:35 SW 6 11.27 Fair CLR 25.1 23.3 90% 26 76.28 0.0
01 05:15 Calm 16.09 Fair CLR 25.1 23.4 90% 26 76.25 0.0
01 04:55 Calm 16.09 Fair CLR 25.1 23.5 91% 26 76.28 0.0
01 04:35 SW 6 16.09 Fair CLR 25.1 23.6 91% 26 76.25 0.0
01 04:15 SW 6 16.09 Fair CLR 25.3 23.8 91% 26 76.25 0.0
01 03:55 Calm 16.09 Fair CLR 25.5 24 91% 27 76.28 0.0
01 03:35 SW 6 16.09 Fair CLR 25.7 24 90% 27 76.28 0.0
01 03:15 SW 9 16.09 Fair CLR 25.8 24.2 91% 28 76.3 0.0
01 02:55 SW 6 16.09 Fair CLR 25.8 24.5 93% 28 76.3 0.0
01 02:35 Calm 16.09 Fair CLR 25.5 24.2 93% 27 76.3 0.0
01 02:15 Calm 11.27 Fair CLR 25.6 24.3 93% 27 76.3 0.0
01 01:55 S 6 16.09 Fair CLR 25.7 24.3 26.9 24.9 92% 27 76.3 0.0
01 01:35 S 6 16.09 Fair CLR 25.6 24.1 91% 27 76.33 0.0
01 01:15 S 7 16.09 Partly Cloudy SCT008 SCT120 25.6 23.9 90% 27 76.35 0.0
01 00:55 S 6 16.09 Partly Cloudy SCT120 25.4 23.7 90% 27 76.35 0.0
01 00:35 S 6 16.09 Partly Cloudy SCT100 25.5 23.6 89% 27 76.38 0.0
01 00:15 Calm 16.09 Mostly Cloudy BKN100 25.6 23.4 88% 27 76.38 0.0
31 23:55 SE 6 16.09 Overcast OVC100 25.2 23.2 89% 26 76.38 0.0
31 23:35 Calm 16.09 Overcast OVC100 25.4 23 87% 27 76.38 0.0
31 23:15 SW 6 16.09 Overcast OVC100 26 23.2 85% 28 76.35 0.0
31 22:55 Calm 11.27 Partly Cloudy SCT100 25.9 23.3 86% 28 76.35 0.0
31 22:35 S 6 16.09 Partly Cloudy SCT110 26 23.3 85% 28 76.35 0.0
31 22:15 S 7 16.09 Mostly Cloudy BKN120 26 23.3 85% 28 76.38 0.0
31 21:55 S 9 16.09 Mostly Cloudy BKN120 26 23.2 85% 28 76.35 0.0
31 21:35 S 13 16.09 Partly Cloudy SCT120 26.1 22.9 83% 28 76.35 0.0
31 21:15 S 11 16.09 Fair CLR 26.4 23 82% 29 76.38 0.0
31 20:55 SE 13 16.09 Fair CLR 26.5 23 81% 29 76.35 0.0
31 20:35 SE 9 16.09 Fair CLR 26.5 23.1 82% 29 76.35 0.0
31 20:15 SE 11 16.09 Fair CLR 26.8 23.3 81% 29 76.35 0.0
31 19:35 NE 6 16.09 Fair CLR 26.8 23 80% 29 76.35 0.0
31 19:15 E 6 16.09 Partly Cloudy SCT120 27.1 23 78% 30 76.35 0.0
31 18:55 Calm 16.09 Partly Cloudy SCT120 27.1 22.8 77% 30 76.38 0.0
31 18:35 Calm 16.09 Partly Cloudy SCT120 27.3 22.7 76% 30 76.38 0.0
31 18:15 Calm 16.09 Partly Cloudy SCT120 27.6 22.8 75% 31 76.4 0.0
31 17:55 N 6 16.09 Partly Cloudy SCT120 27.7 23 76% 31 76.4 0.0
31 17:35 N 6 16.09 Fair CLR 27.8 22.6 73% 31 76.4 0.0
31 17:15 N 7 16.09 Fair CLR 29.1 22.9 69% 33 76.4 0.0
31 16:55 N 11 16.09 Fair CLR 28.2 23 73% 32 76.38 0.0
31 16:35 N 9 16.09 Fair CLR 29 23.1 71% 33 76.38 0.0
31 16:15 NW 11 16.09 Fair CLR 28.7 23 71% 32 76.38 0.0
31 15:55 N 7 16.09 Fair CLR 28.3 22.8 72% 32 76.38 0.0
31 15:35 N 9 16.09 Fair CLR 28.1 22.9 73% 31 76.4 0.0
31 15:15 N 7 16.09 Fair CLR 27.4 22.8 76% 30 76.43 0.0
31 14:55 N 6 16.09 Fair CLR 28.2 22.7 72% 31 76.43 0.0
31 14:35 N 9 16.09 Fair CLR 27.6 22.6 74% 30 76.45 0.0
31 14:15 N 11 16.09 Fair CLR 28.9 23.2 71% 33 76.45 0.0
31 13:55 NW 11 16.09 Partly Cloudy SCT025 SCT110 28.2 22.9 30.1 25 73% 31 76.45 0.0
31 13:35 NW 11 16.09 Mostly Cloudy SCT025 BKN110 28 22.8 73% 31 76.45 0.0
31 13:15 NW 11 16.09 Overcast BKN025 OVC110 28 22.9 74% 31 76.48 0.0
31 12:55 NW 11 16.09 Mostly Cloudy BKN027 BKN110 28.1 22.7 73% 31 76.48 0.0
31 12:35 NE 6 16.09 Partly Cloudy SCT025 SCT100 29 22.5 68% 32 76.48 0.0
31 12:15 E 7 11.27 Mostly Cloudy SCT025 BKN100 28.5 22.5 70% 32 76.48 0.0
31 11:55 E 9 16.09 Overcast SCT020 OVC100 28.1 22.5 72% 31 76.48 0.0
31 11:35 E 13 16.09 Overcast SCT020 OVC100 27.9 22.5 73% 31 76.48 0.0
31 11:15 E 13 16.09 Overcast BKN018 OVC100 27.6 22.7 75% 30 76.48 0.0
31 10:55 NE 9 16.09 Mostly Cloudy BKN018 BKN100 27.8 22.8 74% 31 76.5 0.0
31 10:35 E 9 16.09 Mostly Cloudy BKN016 26.6 22.6 79% 29 76.48 0.0
31 10:15 NE 13 16.09 Overcast OVC014 26.4 22.8 81% 28 76.5 0.0
31 09:55 E 11 16.09 Mostly Cloudy BKN012 BKN100 26.4 22.9 81% 29 76.48 0.0
31 09:35 E 13 16.09 Partly Cloudy SCT010 SCT100 26.1 23 83% 28 76.48 0.0
31 09:15 E 11 16.09 Mostly Cloudy SCT009 BKN100 25.5 22.9 86% 27 76.48 0.0
31 08:55 E 9 16.09 Mostly Cloudy SCT009 BKN100 25.4 23.2 88% 27 76.48 0.0
31 08:35 E 9 16.09 Overcast OVC100 25.1 23.1 89% 26 76.48 0.0
31 08:15 E 13 16.09 Overcast SCT009 OVC100 25 23 89% 26 76.48 0.0
31 07:55 NE 6 16.09 Overcast SCT007 OVC100 25.6 23.5 25.6 22.5 88% 27 76.45 0.0
31 07:15 Calm 16.09 Fair CLR 24.3 23.3 94% 24 76.43 0.0
31 06:55 Calm 11.27 Fair CLR 23.4 23.2 99% 76.4 0.0
31 06:35 Calm 16.09 Fair CLR 23.7 23 96% 76.38 0.0
31 06:15 Calm 11.27 Fog/Mist CLR 23.4 23.2 99% 76.38 0.0
31 05:55 Calm 11.27 Fair CLR 23.2 23.1 99% 76.38 0.0
31 05:35 Calm 16.09 Fair CLR 23.4 23.1 98% 76.38 0.0
31 05:15 Calm 16.09 Fair CLR 24 23.2 95% 23 76.38 0.0
31 04:55 Calm 16.09 Fair CLR 23.1 22.6 97% 76.38 0.0
31 04:35 Calm 16.09 Fair CLR 23.2 23 99% 76.38 0.0
31 04:15 Calm 16.09 Fair CLR 23.6 22.9 96% 76.38 0.0
31 03:55 Calm 16.09 Fair CLR 23.4 22.7 96% 76.38 0.0
31 03:35 Calm 11.27 Partly Cloudy SCT075 22.7 22.4 98% 76.38 0.0
31 03:15 Calm 11.27 Partly Cloudy SCT075 23.2 22.7 97% 76.38 0.0
31 02:55 Calm 16.09 Fair CLR 23.4 22.9 97% 76.4 0.0
31 02:35 Calm 16.09 Fair CLR 23.5 22.7 95% 76.38 0.0
31 02:15 Calm 16.09 Fair CLR 23.6 22.9 96% 76.4 0.0
31 01:55 Calm 16.09 Partly Cloudy SCT050 23.7 23.1 27.6 23.6 96% 76.4 0.0
31 01:35 Calm 16.09 Partly Cloudy SCT050 23.8 23.2 96% 76.4 0.0
31 01:15 Calm 16.09 Fair CLR 24.1 23.2 95% 23 76.4 0.0
31 00:55 Calm 16.09 Fair CLR 24 23 94% 23 76.4 0.0
31 00:35 Calm 16.09 Fair CLR 24.3 23.3 94% 24 76.4 0.0
31 00:15 Calm 16.09 Fair CLR 24.3 23.2 94% 24 76.43 0.0
30 23:55 Calm 16.09 Fair CLR 24.4 22.9 91% 24 76.43 0.0
30 23:35 Calm 16.09 Fair CLR 25.1 23.1 89% 26 76.43 0.0
30 23:15 SW 6 16.09 Fair CLR 26.1 23.2 84% 28 76.43 0.0
30 22:55 SW 7 16.09 Fair CLR 26.2 23.6 86% 28 76.45 0.0
30 22:35 SW 6 16.09 Partly Cloudy SCT015 SCT026 SCT033 26.6 24 86% 29 76.43 0.0
30 22:15 SW 11 16.09 Partly Cloudy SCT015 SCT026 SCT100 26.9 23.8 83% 30 76.45 0.0
30 21:55 S 11 16.09 Partly Cloudy SCT080 27.1 23.4 80% 30 76.45 0.0
30 21:35 S 11 16.09 Overcast OVC080 27.3 23.3 79% 30 76.45 0.0
30 21:15 S 11 16.09 Mostly Cloudy BKN080 BKN100 27.3 23.2 78% 30 76.43 0.0
30 20:55 S 13 16.09 Mostly Cloudy BKN090 BKN120 27.4 23 77% 30 76.45 0.0
30 20:35 S 13 16.09 Mostly Cloudy BKN100 BKN120 27.4 22.9 77% 30 76.43 0.0
30 20:15 S 13 16.09 Fair CLR 27.5 23 77% 30 76.43 0.0
30 19:55 S 13 16.09 Fair CLR 27.6 22.9 31.5 27.6 76% 31 76.4 0.0
30 19:35 S 13 16.09 Partly Cloudy SCT110 27.9 22.8 74% 31 76.4 0.0
30 19:15 S 9 16.09 Mostly Cloudy SCT080 BKN110 28.2 22.4 71% 31 76.43 0.0
30 18:35 S 11 16.09 Mostly Cloudy BKN120 28.9 22.8 70% 32 76.4 0.0
30 18:15 S 15 16.09 Fair CLR 29.6 22.6 66% 33 76.4 0.0
30 17:55 S 13 16.09 Fair CLR 29.9 22.4 64% 33 76.4 0.0
30 17:35 S 15 16.09 Fair CLR 30.3 22.7 64% 34 76.4 0.0
30 17:15 S 13 16.09 Fair CLR 30.7 22 60% 34 76.4 0.0
30 16:55 S 15 16.09 Fair CLR 30.6 21.8 59% 34 76.4 0.0
30 16:35 S 15 16.09 Fair CLR 31.1 22.2 59% 35 76.4 0.0
30 16:15 S 20 16.09 Fair CLR 31 22 59% 35 76.43 0.0
30 15:55 S 17 16.09 Partly Cloudy SCT095 31 21.8 58% 34 76.43 0.0
30 15:35 S 19 16.09 Overcast OVC095 30.4 22 61% 34 76.45 0.0
30 15:15 S 15 16.09 Overcast SCT085 OVC100 30.3 21 58% 33 76.45 0.0
30 14:55 S 9 16.09 Mostly Cloudy BKN110 30 20.8 58% 32 76.48 0.0
30 14:35 S 19 16.09 Fair CLR 31 20.9 55% 34 76.5 0.0
30 14:15 SW 15 G 28 16.09 Fair CLR 30.8 20.9 56% 33 76.53 0.0
30 13:55 SW 15 G 28 16.09 Fair CLR 30.7 20.9 30.9 24.4 56% 33 76.56 0.0
30 13:35 S 19 16.09 Fair CLR 30.7 21.3 57% 34 76.58 0.0
30 13:15 SW 17 G 30 16.09 Fair CLR 30.1 21.2 59% 33 76.58 0.0
30 12:55 SW 13 16.09 Partly Cloudy SCT085 30 21.1 59% 33 76.61 0.0
30 12:35 S 15 16.09 Mostly Cloudy SCT027 BKN085 28.9 21.4 64% 31 76.63 0.0
30 12:15 S 15 16.09 Overcast SCT027 OVC085 28.7 21.4 65% 31 76.66 0.0
30 11:55 SW 19 G 26 16.09 Mostly Cloudy SCT022 BKN085 28.8 21.4 64% 31 76.66 0.0
30 11:35 SW 17 G 28 16.09 Mostly Cloudy BKN020 BKN025 28 21.7 69% 30 76.66 0.0
30 11:15 SW 19 16.09 Overcast OVC018 27.5 21.5 70% 30 76.66 0.0
30 10:55 S 17 16.09 Overcast OVC018 28.5 21.5 66% 31 76.66 0.0
30 10:35 S 17 G 31 16.09 Mostly Cloudy BKN018 BKN022 28.4 21.8 67% 31 76.66 0.0
30 10:15 SW 15 G 30 16.09 Mostly Cloudy BKN018 26.9 21.5 72% 29 76.66 0.0
30 09:55 SW 19 16.09 Mostly Cloudy BKN018 26.4 21.6 75% 28 76.68 0.0
30 09:35 SW 17 G 28 16.09 Mostly Cloudy BKN018 BKN095 25.9 21.1 75% 27 76.71 0.0
30 09:15 SW 13 16.09 Mostly Cloudy BKN018 BKN095 25.2 21.2 79% 26 76.73 0.0
30 08:55 SW 19 16.09 Partly Cloudy SCT018 25.1 21.4 80% 26 76.73 0.0
30 08:35 SW 15 G 26 16.09 Mostly Cloudy BKN012 BKN021 25.9 21.8 78% 27 76.73 0.0
30 07:55 S 11 16.09 Mostly Cloudy BKN010 BKN075 24.1 22.1 24.3 22.2 89% 24 76.73 0.0
30 07:35 SW 6 16.09 Overcast OVC010 23.9 22 89% 23 76.73 0.0
30 07:15 S 7 16.09 Overcast OVC011 23.7 22 90% 76.73 0.0
30 06:55 S 11 16.09 Overcast OVC011 23.5 21.9 91% 76.73 0.0
30 06:35 S 7 16.09 Mostly Cloudy BKN013 BKN019 BKN100 23.2 21.8 92% 76.71 0.0
30 06:15 S 7 16.09 Mostly Cloudy SCT017 BKN026 BKN100 23 21.6 92% 76.71 0.0
30 05:55 S 6 16.09 Overcast BKN019 OVC024 23.1 21.5 91% 76.71 0.0
30 05:35 S 7 16.09 Mostly Cloudy BKN020 22.8 21.4 92% 76.71 0.0
30 05:15 SE 7 16.09 Partly Cloudy SCT022 SCT090 22.3 20.8 91% 76.68 0.0
30 04:55 SE 11 16.09 Overcast BKN022 OVC090 22.8 21 90% 76.71 0.0
30 04:35 SE 9 16.09 Mostly Cloudy BKN024 BKN028 BKN090 22.9 20.9 89% 76.71 0.0
30 04:15 SE 11 16.09 Partly Cloudy SCT024 SCT090 22.8 20.7 88% 76.71 0.0
30 03:55 SE 9 16.09 Partly Cloudy SCT090 22.6 20.8 90% 76.71 0.0
30 03:35 S 9 16.09 Mostly Cloudy SCT050 BKN090 22.7 20.7 89% 76.71 0.0
Date Time (edt) Wind (kph) Vis. (km) Weather Sky Cond. Air Dwpt Max. Min. Relative Humidity Wind Chill (°C) Heat Index (°C) altimeter (cm) sea level (mb) 1 hr 3 hr 6 hr
6 hour
Temperature (ºC) Pressure Precipitation (cm)